sensor_id;sensor_type;location;lat;lon;timestamp;P1;durP1;ratioP1;P2;durP2;ratioP2
9288;SDS011;4683;50.864;12.086;2022-08-14T00:00:49;9.63;;;8.83;;
9288;SDS011;4683;50.864;12.086;2022-08-14T00:03:19;9.37;;;8.57;;
9288;SDS011;4683;50.864;12.086;2022-08-14T00:05:48;9.63;;;8.93;;
9288;SDS011;4683;50.864;12.086;2022-08-14T00:08:17;9.90;;;9.00;;
9288;SDS011;4683;50.864;12.086;2022-08-14T00:10:47;9.63;;;8.93;;
9288;SDS011;4683;50.864;12.086;2022-08-14T00:13:17;10.13;;;9.23;;
9288;SDS011;4683;50.864;12.086;2022-08-14T02:29:55;11.43;;;10.53;;
9288;SDS011;4683;50.864;12.086;2022-08-14T02:32:23;11.13;;;10.23;;
9288;SDS011;4683;50.864;12.086;2022-08-14T02:34:52;11.10;;;10.10;;
9288;SDS011;4683;50.864;12.086;2022-08-14T02:37:20;11.07;;;10.23;;
9288;SDS011;4683;50.864;12.086;2022-08-14T02:39:49;10.80;;;9.90;;
9288;SDS011;4683;50.864;12.086;2022-08-14T02:42:18;11.63;;;10.60;;
9288;SDS011;4683;50.864;12.086;2022-08-14T02:44:48;11.90;;;10.80;;
9288;SDS011;4683;50.864;12.086;2022-08-14T02:47:18;12.17;;;11.17;;
9288;SDS011;4683;50.864;12.086;2022-08-14T02:49:48;11.73;;;10.63;;
9288;SDS011;4683;50.864;12.086;2022-08-14T02:52:17;12.27;;;11.07;;
9288;SDS011;4683;50.864;12.086;2022-08-14T02:54:45;11.93;;;10.97;;
9288;SDS011;4683;50.864;12.086;2022-08-14T02:57:13;12.20;;;11.20;;
9288;SDS011;4683;50.864;12.086;2022-08-14T02:59:42;13.07;;;11.93;;
9288;SDS011;4683;50.864;12.086;2022-08-14T03:02:12;12.87;;;11.67;;
9288;SDS011;4683;50.864;12.086;2022-08-14T03:04:42;11.63;;;10.63;;
9288;SDS011;4683;50.864;12.086;2022-08-14T03:07:12;12.00;;;11.00;;
9288;SDS011;4683;50.864;12.086;2022-08-14T03:09:41;12.37;;;11.17;;
9288;SDS011;4683;50.864;12.086;2022-08-14T03:12:11;12.20;;;11.13;;
9288;SDS011;4683;50.864;12.086;2022-08-14T03:14:39;12.30;;;11.07;;
9288;SDS011;4683;50.864;12.086;2022-08-14T03:17:10;12.27;;;11.17;;
9288;SDS011;4683;50.864;12.086;2022-08-14T03:19:41;12.20;;;11.10;;
9288;SDS011;4683;50.864;12.086;2022-08-14T03:22:10;12.27;;;11.17;;
9288;SDS011;4683;50.864;12.086;2022-08-14T03:24:39;12.80;;;11.60;;
9288;SDS011;4683;50.864;12.086;2022-08-14T03:27:08;11.80;;;10.80;;
9288;SDS011;4683;50.864;12.086;2022-08-14T03:29:38;11.73;;;10.80;;
9288;SDS011;4683;50.864;12.086;2022-08-14T03:32:07;11.70;;;10.70;;
9288;SDS011;4683;50.864;12.086;2022-08-14T03:34:36;11.37;;;10.47;;
9288;SDS011;4683;50.864;12.086;2022-08-14T03:37:05;11.83;;;10.70;;
9288;SDS011;4683;50.864;12.086;2022-08-14T03:39:38;11.17;;;10.17;;
9288;SDS011;4683;50.864;12.086;2022-08-14T03:42:06;11.57;;;10.50;;
9288;SDS011;4683;50.864;12.086;2022-08-14T03:44:34;13.00;;;12.00;;
9288;SDS011;4683;50.864;12.086;2022-08-14T03:47:04;12.50;;;11.40;;
9288;SDS011;4683;50.864;12.086;2022-08-14T03:49:33;12.63;;;11.50;;
9288;SDS011;4683;50.864;12.086;2022-08-14T03:52:04;12.83;;;11.60;;
9288;SDS011;4683;50.864;12.086;2022-08-14T03:54:32;12.43;;;11.30;;
9288;SDS011;4683;50.864;12.086;2022-08-14T03:57:00;11.70;;;10.67;;
9288;SDS011;4683;50.864;12.086;2022-08-14T03:59:30;12.00;;;11.00;;
9288;SDS011;4683;50.864;12.086;2022-08-14T04:01:59;11.77;;;10.73;;
9288;SDS011;4683;50.864;12.086;2022-08-14T04:04:29;12.97;;;11.80;;
9288;SDS011;4683;50.864;12.086;2022-08-14T04:06:59;12.33;;;11.23;;
9288;SDS011;4683;50.864;12.086;2022-08-14T04:09:29;12.27;;;11.27;;
9288;SDS011;4683;50.864;12.086;2022-08-14T04:11:58;12.50;;;11.33;;
9288;SDS011;4683;50.864;12.086;2022-08-14T04:14:28;12.37;;;11.37;;
9288;SDS011;4683;50.864;12.086;2022-08-14T04:46:17;13.93;;;12.73;;
9288;SDS011;4683;50.864;12.086;2022-08-14T04:48:48;12.60;;;11.57;;
9288;SDS011;4683;50.864;12.086;2022-08-14T04:51:16;13.50;;;12.30;;
9288;SDS011;4683;50.864;12.086;2022-08-14T04:53:47;13.27;;;12.17;;
9288;SDS011;4683;50.864;12.086;2022-08-14T04:56:17;13.30;;;12.20;;
9288;SDS011;4683;50.864;12.086;2022-08-14T04:58:49;14.60;;;13.17;;
9288;SDS011;4683;50.864;12.086;2022-08-14T05:30:43;17.73;;;16.13;;
9288;SDS011;4683;50.864;12.086;2022-08-14T05:33:18;17.43;;;15.83;;
9288;SDS011;4683;50.864;12.086;2022-08-14T05:35:49;17.90;;;16.30;;
9288;SDS011;4683;50.864;12.086;2022-08-14T05:38:20;18.13;;;16.40;;
9288;SDS011;4683;50.864;12.086;2022-08-14T05:40:49;17.17;;;15.67;;
9288;SDS011;4683;50.864;12.086;2022-08-14T05:43:17;17.13;;;15.63;;
9288;SDS011;4683;50.864;12.086;2022-08-14T05:45:47;17.30;;;15.73;;
9288;SDS011;4683;50.864;12.086;2022-08-14T05:48:15;16.93;;;15.50;;
9288;SDS011;4683;50.864;12.086;2022-08-14T05:50:44;18.13;;;16.53;;
9288;SDS011;4683;50.864;12.086;2022-08-14T05:53:13;18.40;;;16.77;;
9288;SDS011;4683;50.864;12.086;2022-08-14T05:55:41;18.93;;;17.37;;
9288;SDS011;4683;50.864;12.086;2022-08-14T05:58:10;19.60;;;17.80;;
9288;SDS011;4683;50.864;12.086;2022-08-14T06:00:40;19.40;;;17.60;;
9288;SDS011;4683;50.864;12.086;2022-08-14T06:03:12;19.40;;;17.80;;
9288;SDS011;4683;50.864;12.086;2022-08-14T06:05:43;19.90;;;18.07;;
9288;SDS011;4683;50.864;12.086;2022-08-14T06:08:13;19.23;;;17.63;;
9288;SDS011;4683;50.864;12.086;2022-08-14T06:10:44;19.57;;;17.77;;
9288;SDS011;4683;50.864;12.086;2022-08-14T06:13:13;19.90;;;18.10;;
9288;SDS011;4683;50.864;12.086;2022-08-14T06:15:42;20.83;;;19.00;;
9288;SDS011;4683;50.864;12.086;2022-08-14T06:18:13;18.60;;;17.10;;
9288;SDS011;4683;50.864;12.086;2022-08-14T06:20:43;20.37;;;18.67;;
9288;SDS011;4683;50.864;12.086;2022-08-14T06:23:14;19.83;;;18.23;;
9288;SDS011;4683;50.864;12.086;2022-08-14T06:25:43;19.87;;;18.17;;
9288;SDS011;4683;50.864;12.086;2022-08-14T06:28:14;19.03;;;17.33;;
9288;SDS011;4683;50.864;12.086;2022-08-14T06:30:44;19.07;;;17.37;;
9288;SDS011;4683;50.864;12.086;2022-08-14T06:33:15;19.53;;;17.83;;
9288;SDS011;4683;50.864;12.086;2022-08-14T07:23:32;17.07;;;15.47;;
9288;SDS011;4683;50.864;12.086;2022-08-14T07:26:04;16.67;;;15.27;;
9288;SDS011;4683;50.864;12.086;2022-08-14T07:28:35;17.53;;;15.93;;
9288;SDS011;4683;50.864;12.086;2022-08-14T09:12:29;10.87;;;9.97;;
9288;SDS011;4683;50.864;12.086;2022-08-14T10:44:39;7.77;;;7.17;;
9288;SDS011;4683;50.864;12.086;2022-08-14T10:47:12;8.40;;;7.77;;
9288;SDS011;4683;50.864;12.086;2022-08-14T10:49:54;7.33;;;6.73;;
9288;SDS011;4683;50.864;12.086;2022-08-14T10:52:26;8.47;;;7.77;;
9288;SDS011;4683;50.864;12.086;2022-08-14T10:55:05;8.73;;;7.93;;
9288;SDS011;4683;50.864;12.086;2022-08-14T10:57:48;8.43;;;7.83;;
9288;SDS011;4683;50.864;12.086;2022-08-14T11:42:07;8.13;;;7.63;;
9288;SDS011;4683;50.864;12.086;2022-08-14T11:44:55;7.80;;;7.10;;
9288;SDS011;4683;50.864;12.086;2022-08-14T11:47:31;7.73;;;7.20;;
9288;SDS011;4683;50.864;12.086;2022-08-14T11:50:10;7.90;;;7.20;;
9288;SDS011;4683;50.864;12.086;2022-08-14T11:52:40;7.93;;;7.33;;
9288;SDS011;4683;50.864;12.086;2022-08-14T11:55:09;7.23;;;6.73;;
9288;SDS011;4683;50.864;12.086;2022-08-14T19:46:25;9.23;;;8.33;;
9288;SDS011;4683;50.864;12.086;2022-08-14T19:48:56;8.67;;;7.03;;
9288;SDS011;4683;50.864;12.086;2022-08-14T19:51:27;9.57;;;8.70;;
9288;SDS011;4683;50.864;12.086;2022-08-14T19:53:56;11.83;;;10.83;;
9288;SDS011;4683;50.864;12.086;2022-08-14T19:56:33;13.13;;;11.93;;
9288;SDS011;4683;50.864;12.086;2022-08-14T19:59:03;8.93;;;8.23;;
